Weather at Norman Grier Field

Public forecast

Using degrees Fahrenheit for public forecast. Weather courtesy of forecast.io.

Closest aviation weather report (METAR) to Norman Grier Field

Closest report is Renton Municipal Airport, 10.4 nm (19.3 km) NNW. Retrieved 2021/01/27 23:53 UTC (43 minutes ago):

KRNT 272353Z 33006KT 10SM OVC065 07/02 A2958 RMK AO2 SLP022 T00720017 10078 20039 55001

Closest aviation forecast (TAF) to Norman Grier Field

Closest forecast is Seattle Tacoma International Airport, 10.7 nm (19.8 km) NW. Retrieved 2021-01-28 00:30 UTC (6 minutes ago):

TAF KSEA 272329Z 2800/2906 VRB05KT P6SM SCT020 BKN200 FM280300 06005KT P6SM BKN050 TEMPO 2803/2806 -RA BKN030 FM280900 06007KT P6SM OVC030 TEMPO 2809/2812 -RA OVC025 FM281400 10004KT P6SM OVC025 FM282000 35003KT P6SM BKN030